Time;durP1;ratioP1;P1;durP2;ratioP2;P2;SDS_P1;SDS_P2;PMS_P1;PMS_P2;Temp;Humidity;BMP_temperature;BMP_pressure;BME280_temperature;BME280_humidity;BME280_pressure;Samples;Min_cycle;Max_cycle;Signal;HPM_P1;HPM_P2
2022/11/19 00:02:27;;;;;;;6.87;4.73;;;-0.40;99.90;;;;;;5058280;28;20424;-55
2022/11/19 00:04:58;;;;;;;7.77;5.57;;;-0.40;99.90;;;;;;5058333;28;20448;-62
2022/11/19 00:07:34;;;;;;;6.83;4.30;;;-0.50;99.90;;;;;;5058482;28;20483;-56
2022/11/19 00:10:06;;;;;;;9.90;5.10;;;-0.40;99.90;;;;;;5058780;28;20463;-56
2022/11/19 00:15:20;;;;;;;26.63;7.53;;;-0.40;99.90;;;;;;5058668;28;20411;-60
2022/11/19 00:17:47;;;;;;;12.33;4.43;;;-0.40;99.90;;;;;;5058076;28;20436;-51
2022/11/19 00:20:19;;;;;;;5.30;4.00;;;-0.40;99.90;;;;;;5058221;28;20476;-47
2022/11/19 00:22:50;;;;;;;4.70;3.57;;;-0.40;99.90;;;;;;5058953;28;20444;-59
2022/11/19 00:25:17;;;;;;;7.30;4.83;;;-0.40;99.90;;;;;;5058803;28;20491;-54
2022/11/19 00:27:44;;;;;;;7.47;4.30;;;-0.40;99.90;;;;;;5058929;28;20459;-45
2022/11/19 00:30:12;;;;;;;5.77;4.07;;;-0.40;99.90;;;;;;5048423;28;20444;-57
2022/11/19 00:32:39;;;;;;;8.40;4.43;;;-0.40;99.90;;;;;;5057261;28;20444;-54
2022/11/19 00:35:11;;;;;;;5.93;5.33;;;-0.50;99.90;;;;;;5058829;28;20444;-46
2022/11/19 00:37:41;;;;;;;8.20;4.03;;;-0.40;99.90;;;;;;5058631;28;20471;-58
2022/11/19 00:40:12;;;;;;;4.20;3.80;;;-0.40;99.90;;;;;;5057819;28;20424;-53
2022/11/19 00:43:45;;;;;;;7.90;4.57;;;-0.40;99.90;;;;;;5057404;28;20437;-58
2022/11/19 00:45:26;;;;;;;7.77;4.73;;;-0.40;99.90;;;;;;5057377;28;20527;-52
2022/11/19 00:47:53;;;;;;;9.83;4.10;;;-0.40;99.90;;;;;;5057115;28;20483;-59
2022/11/19 00:50:24;;;;;;;6.30;3.97;;;-0.50;99.90;;;;;;5057058;28;20486;-55
2022/11/19 00:52:52;;;;;;;4.63;3.53;;;-0.50;99.90;;;;;;5057417;28;20425;-57
2022/11/19 00:55:21;;;;;;;4.23;3.60;;;-0.50;99.90;;;;;;5057095;28;20614;-56
2022/11/19 00:57:50;;;;;;;4.70;3.40;;;-0.50;99.90;;;;;;5057221;28;20444;-57
2022/11/19 01:00:19;;;;;;;5.17;3.83;;;-0.50;99.90;;;;;;5057245;28;20462;-58
2022/11/19 01:02:49;;;;;;;5.27;4.70;;;-0.50;99.90;;;;;;5057236;28;20494;-60
2022/11/19 01:05:16;;;;;;;5.33;3.63;;;-0.50;99.90;;;;;;5057506;28;20444;-55
2022/11/19 01:07:44;;;;;;;7.03;5.63;;;-0.50;99.90;;;;;;5056684;28;20499;-56
2022/11/19 01:10:17;;;;;;;7.67;4.60;;;-0.50;99.90;;;;;;5057340;28;20428;-54
2022/11/19 01:15:26;;;;;;;6.33;4.43;;;-0.40;99.90;;;;;;5055590;28;20471;-59
2022/11/19 01:17:53;;;;;;;7.27;4.87;;;-0.50;99.90;;;;;;5056586;28;20484;-58
2022/11/19 01:20:22;;;;;;;6.93;4.50;;;-0.50;99.90;;;;;;5056624;28;20487;-49
2022/11/19 01:22:49;;;;;;;13.90;4.60;;;-0.60;99.90;;;;;;5056906;28;20440;-55
2022/11/19 01:25:18;;;;;;;10.73;5.43;;;-0.60;99.90;;;;;;5056792;28;20424;-57
2022/11/19 01:27:45;;;;;;;14.57;6.57;;;-0.60;99.90;;;;;;5056337;28;21074;-58
2022/11/19 01:30:13;;;;;;;6.80;4.10;;;-0.60;99.90;;;;;;5057327;28;20448;-58
2022/11/19 01:32:40;;;;;;;8.23;3.73;;;-0.60;99.90;;;;;;5056703;28;20455;-58
2022/11/19 01:35:19;;;;;;;7.10;4.23;;;-0.70;99.90;;;;;;5056794;28;20428;-60
2022/11/19 01:37:50;;;;;;;5.63;4.43;;;-0.60;99.90;;;;;;5048859;28;20448;-53
2022/11/19 01:40:19;;;;;;;4.50;3.60;;;-0.70;99.90;;;;;;5056605;28;20527;-58
2022/11/19 01:42:49;;;;;;;9.63;5.00;;;-0.70;99.90;;;;;;5056511;28;20516;-59
2022/11/19 01:45:29;;;;;;;7.60;4.60;;;-0.70;99.90;;;;;;5055894;28;20448;-52
2022/11/19 01:48:07;;;;;;;6.33;4.07;;;-0.70;99.90;;;;;;5056506;28;20464;-57
2022/11/19 01:50:36;;;;;;;5.53;3.93;;;-0.70;99.90;;;;;;5056225;28;20459;-52
2022/11/19 01:53:04;;;;;;;5.80;3.23;;;-0.70;99.90;;;;;;5056667;28;20449;-54
2022/11/19 01:55:32;;;;;;;9.40;4.50;;;-0.80;99.90;;;;;;5056369;28;20440;-56
2022/11/19 01:58:02;;;;;;;7.40;4.73;;;-0.80;99.90;;;;;;5051564;28;20476;-58
2022/11/19 02:00:29;;;;;;;6.10;4.43;;;-0.80;99.90;;;;;;5045836;28;20428;-57
2022/11/19 02:02:56;;;;;;;8.07;4.17;;;-0.80;99.90;;;;;;5056155;28;20479;-55
2022/11/19 02:05:25;;;;;;;6.20;4.27;;;-0.70;99.90;;;;;;5045825;28;20444;-58
2022/11/19 02:07:54;;;;;;;10.00;4.53;;;-0.80;99.90;;;;;;5056290;28;20500;-57
2022/11/19 02:10:29;;;;;;;5.87;3.70;;;-0.80;99.90;;;;;;5050735;28;20977;-60
2022/11/19 02:13:03;;;;;;;6.63;5.50;;;-0.80;99.90;;;;;;5053336;28;20427;-57
2022/11/19 02:15:38;;;;;;;9.97;6.00;;;-0.80;99.90;;;;;;5055981;28;20471;-54
2022/11/19 02:18:34;;;;;;;8.73;4.87;;;-0.70;99.90;;;;;;5046488;28;20454;-54
2022/11/19 02:21:31;;;;;;;4.33;3.70;;;-0.70;99.90;;;;;;5056389;28;20448;-58
2022/11/19 02:24:17;;;;;;;12.40;4.57;;;-0.70;99.90;;;;;;5055940;28;20448;-48
2022/11/19 02:27:22;;;;;;;8.67;5.07;;;-0.70;99.90;;;;;;5045438;28;20519;-57
2022/11/19 02:30:16;;;;;;;8.87;4.47;;;-0.70;99.90;;;;;;5056999;28;20436;-47
2022/11/19 02:33:05;;;;;;;8.27;4.27;;;-0.70;99.90;;;;;;5056600;28;20458;-59
2022/11/19 02:35:44;;;;;;;11.63;5.43;;;-0.80;99.90;;;;;;5056641;28;20436;-53
2022/11/19 02:38:23;;;;;;;4.60;4.13;;;-0.80;99.90;;;;;;5048216;28;20473;-58
2022/11/19 02:40:58;;;;;;;4.67;3.17;;;-0.80;99.90;;;;;;5056493;28;20460;-55
2022/11/19 02:43:29;;;;;;;9.90;4.83;;;-0.90;99.90;;;;;;5056931;28;20454;-59
2022/11/19 02:46:01;;;;;;;5.70;4.03;;;-0.90;99.90;;;;;;5045665;28;20844;-55
2022/11/19 02:48:34;;;;;;;9.80;4.67;;;-0.90;99.90;;;;;;5056059;28;20480;-53
2022/11/19 02:51:03;;;;;;;11.23;4.63;;;-0.80;99.90;;;;;;5055797;28;20475;-58
2022/11/19 02:53:33;;;;;;;13.20;4.17;;;-0.90;99.90;;;;;;5055526;28;20448;-53
2022/11/19 02:56:12;;;;;;;5.07;4.13;;;-0.90;99.90;;;;;;5057113;28;20479;-60
2022/11/19 03:04:30;;;;;;;6.40;3.93;;;-1.00;99.90;;;;;;5054334;28;20467;-55
2022/11/19 03:06:59;;;;;;;8.13;4.37;;;-1.10;99.90;;;;;;5056010;28;20499;-51
2022/11/19 03:09:27;;;;;;;4.20;3.40;;;-1.10;99.90;;;;;;5056923;28;20526;-61
2022/11/19 03:11:59;;;;;;;11.70;4.77;;;-1.20;99.90;;;;;;5053307;28;20440;-57
2022/11/19 03:17:30;;;;;;;8.27;5.03;;;-1.20;99.90;;;;;;5059886;28;20508;-57
2022/11/19 03:20:03;;;;;;;4.97;4.47;;;-1.20;99.90;;;;;;5059212;28;20416;-56
2022/11/19 03:22:45;;;;;;;5.33;3.80;;;-1.20;99.90;;;;;;5059458;28;20474;-59
2022/11/19 03:25:21;;;;;;;5.97;4.27;;;-1.20;99.90;;;;;;5059743;28;20420;-56
2022/11/19 03:27:54;;;;;;;7.43;4.13;;;-1.20;99.90;;;;;;5059549;28;20498;-57
2022/11/19 03:30:21;;;;;;;7.17;5.90;;;-1.20;99.90;;;;;;5056825;28;20447;-61
2022/11/19 03:32:56;;;;;;;8.47;4.40;;;-1.20;99.90;;;;;;5050564;28;20452;-56
2022/11/19 03:35:32;;;;;;;6.27;4.30;;;-1.20;99.90;;;;;;5054716;28;20472;-55
2022/11/19 03:38:02;;;;;;;6.60;3.53;;;-1.20;99.90;;;;;;5059990;28;20424;-55
2022/11/19 03:40:32;;;;;;;4.40;2.80;;;-1.10;99.90;;;;;;5055996;28;20483;-62
2022/11/19 03:43:05;;;;;;;8.60;5.03;;;-1.10;99.90;;;;;;5055885;28;20444;-55
2022/11/19 03:45:40;;;;;;;7.53;4.83;;;-1.10;99.90;;;;;;5059092;28;20484;-59
2022/11/19 03:48:09;;;;;;;8.53;3.67;;;-1.10;99.90;;;;;;5053463;28;20468;-58
2022/11/19 03:50:47;;;;;;;9.83;4.70;;;-1.10;99.90;;;;;;5057105;28;20440;-59
2022/11/19 03:53:14;;;;;;;14.67;6.00;;;-1.10;99.90;;;;;;5058737;28;20475;-55
2022/11/19 03:55:47;;;;;;;6.90;3.77;;;-1.20;99.90;;;;;;5058534;28;20448;-59
2022/11/19 03:58:13;;;;;;;7.23;4.50;;;-1.20;99.90;;;;;;5052391;28;20464;-61
2022/11/19 04:00:40;;;;;;;10.40;6.17;;;-1.20;99.90;;;;;;5057740;28;20439;-53
2022/11/19 04:03:09;;;;;;;6.93;3.10;;;-1.20;99.90;;;;;;5058523;28;20444;-50
2022/11/19 04:05:38;;;;;;;6.23;3.57;;;-1.20;99.90;;;;;;5059092;28;20471;-55
2022/11/19 04:08:11;;;;;;;7.23;4.60;;;-1.20;99.90;;;;;;5058582;28;20483;-60
2022/11/19 04:10:38;;;;;;;7.60;3.97;;;-1.10;99.90;;;;;;5058708;28;20471;-54
2022/11/19 04:13:04;;;;;;;15.67;4.23;;;-1.20;99.90;;;;;;5058353;28;20409;-52
2022/11/19 04:15:31;;;;;;;7.27;5.20;;;-1.10;99.90;;;;;;5058462;28;20440;-54
2022/11/19 04:18:00;;;;;;;6.87;5.40;;;-1.10;99.90;;;;;;5058396;28;20436;-52
2022/11/19 04:20:28;;;;;;;7.27;4.30;;;-1.20;99.90;;;;;;5058599;28;20444;-51
2022/11/19 04:22:58;;;;;;;5.93;3.50;;;-1.20;99.90;;;;;;5058750;28;20511;-61
2022/11/19 04:25:25;;;;;;;6.40;3.63;;;-1.20;99.90;;;;;;5058223;28;20433;-56
2022/11/19 04:27:54;;;;;;;19.90;5.07;;;-1.20;99.90;;;;;;5058205;28;20490;-59
2022/11/19 04:30:21;;;;;;;7.43;3.17;;;-1.20;99.90;;;;;;5048513;28;20468;-56
2022/11/19 04:32:48;;;;;;;9.40;4.77;;;-1.10;99.90;;;;;;5057668;28;20448;-58
2022/11/19 04:35:20;;;;;;;16.63;4.60;;;-1.10;99.90;;;;;;5047248;28;20473;-55
2022/11/19 04:37:49;;;;;;;5.10;4.13;;;-1.10;99.90;;;;;;5058006;28;20480;-56
2022/11/19 04:40:23;;;;;;;5.40;4.37;;;-1.10;99.90;;;;;;5058053;28;20428;-58
2022/11/19 04:42:50;;;;;;;9.77;4.77;;;-1.00;99.90;;;;;;5058090;28;20435;-59
2022/11/19 04:45:17;;;;;;;3.90;3.13;;;-1.00;99.90;;;;;;5057588;28;20474;-62
2022/11/19 04:47:47;;;;;;;7.63;4.50;;;-1.00;99.90;;;;;;5057682;28;20475;-57
2022/11/19 04:50:16;;;;;;;5.97;4.43;;;-1.00;99.90;;;;;;5057829;28;20417;-52
2022/11/19 04:52:45;;;;;;;5.23;3.80;;;-0.90;99.90;;;;;;5057686;28;20432;-51
2022/11/19 04:55:13;;;;;;;6.53;4.33;;;-1.00;99.90;;;;;;5048160;28;20433;-60
2022/11/19 04:57:40;;;;;;;5.07;3.87;;;-1.00;99.90;;;;;;5052293;28;20478;-65
2022/11/19 05:00:08;;;;;;;4.30;3.90;;;-1.00;99.90;;;;;;5050685;28;20729;-56
2022/11/19 05:02:38;;;;;;;9.43;3.90;;;-1.00;99.90;;;;;;5057491;28;20475;-59
2022/11/19 05:05:06;;;;;;;5.40;3.27;;;-1.00;99.90;;;;;;5048279;28;20444;-62
2022/11/19 05:07:33;;;;;;;7.57;4.87;;;-1.10;99.90;;;;;;5055828;28;20428;-56
2022/11/19 05:10:00;;;;;;;6.00;3.40;;;-1.10;99.90;;;;;;5052900;28;20472;-51
2022/11/19 05:12:28;;;;;;;7.07;4.83;;;-1.00;99.90;;;;;;5050658;28;20555;-61
2022/11/19 05:14:55;;;;;;;4.80;3.17;;;-1.00;99.90;;;;;;5056217;28;20510;-57
2022/11/19 05:17:25;;;;;;;12.13;4.17;;;-1.00;99.90;;;;;;5057092;28;20431;-57
2022/11/19 05:19:52;;;;;;;6.40;3.87;;;-1.00;99.90;;;;;;5056667;28;20432;-57
2022/11/19 05:22:19;;;;;;;7.20;4.00;;;-1.00;99.90;;;;;;5050457;28;20928;-60
2022/11/19 05:24:47;;;;;;;4.97;3.67;;;-1.00;99.90;;;;;;5055481;28;20472;-54
2022/11/19 05:27:14;;;;;;;7.53;4.60;;;-1.10;99.90;;;;;;5052887;28;20433;-52
2022/11/19 05:29:42;;;;;;;5.73;4.03;;;-1.00;99.90;;;;;;5048774;28;20471;-60
2022/11/19 05:32:11;;;;;;;6.63;3.60;;;-1.00;99.90;;;;;;5055924;28;20428;-55
2022/11/19 05:34:38;;;;;;;2.77;2.53;;;-1.00;99.90;;;;;;5057190;28;20451;-59
2022/11/19 05:37:05;;;;;;;5.53;3.83;;;-1.00;99.90;;;;;;5056849;28;20467;-54
2022/11/19 05:39:32;;;;;;;6.90;4.77;;;-0.90;99.90;;;;;;5054516;28;20436;-62
2022/11/19 05:41:59;;;;;;;10.53;3.33;;;-0.90;99.90;;;;;;5048972;28;20491;-56
2022/11/19 05:44:25;;;;;;;6.23;2.97;;;-0.90;99.90;;;;;;5053231;28;20448;-61
2022/11/19 05:46:55;;;;;;;6.83;3.57;;;-0.90;99.90;;;;;;5050359;28;20448;-55
2022/11/19 05:49:22;;;;;;;11.27;4.70;;;-0.90;99.90;;;;;;5055535;28;20499;-63
2022/11/19 05:51:55;;;;;;;9.30;4.23;;;-0.90;99.90;;;;;;5047326;28;20470;-57
2022/11/19 05:54:24;;;;;;;4.00;2.90;;;-0.80;99.90;;;;;;5057198;28;20487;-58
2022/11/19 05:56:51;;;;;;;7.13;3.77;;;-0.90;99.90;;;;;;5053863;28;20451;-59
2022/11/19 05:59:19;;;;;;;5.00;3.40;;;-0.90;99.90;;;;;;5054504;28;20475;-52
2022/11/19 06:01:48;;;;;;;5.97;3.10;;;-0.90;99.90;;;;;;5056681;28;20486;-56
2022/11/19 06:04:20;;;;;;;4.27;3.33;;;-0.80;99.90;;;;;;5056080;28;20447;-57
2022/11/19 06:06:47;;;;;;;9.23;3.33;;;-0.80;99.90;;;;;;5056319;28;20451;-58
2022/11/19 06:09:13;;;;;;;8.63;4.33;;;-0.80;99.90;;;;;;5056207;28;20479;-51
2022/11/19 06:11:49;;;;;;;4.90;3.27;;;-0.90;99.90;;;;;;5056112;28;20500;-57
2022/11/19 06:14:20;;;;;;;4.87;2.90;;;-0.90;99.90;;;;;;5056249;28;20444;-55
2022/11/19 06:16:47;;;;;;;5.50;3.83;;;-0.90;99.90;;;;;;5056294;28;20436;-53
2022/11/19 06:19:15;;;;;;;9.43;5.10;;;-0.90;99.90;;;;;;5055995;28;20468;-56
2022/11/19 06:21:44;;;;;;;3.73;2.50;;;-1.00;99.90;;;;;;5047024;28;20913;-57
2022/11/19 06:24:14;;;;;;;8.90;4.07;;;-0.90;99.90;;;;;;5055119;28;20456;-55
2022/11/19 06:26:41;;;;;;;4.50;4.10;;;-0.90;99.90;;;;;;5051706;28;20434;-55
2022/11/19 06:29:11;;;;;;;6.27;4.40;;;-0.90;99.90;;;;;;5056444;28;20495;-52
2022/11/19 06:31:40;;;;;;;6.80;3.80;;;-0.90;99.90;;;;;;5055660;28;20494;-57
2022/11/19 06:34:07;;;;;;;3.17;2.87;;;-0.90;99.90;;;;;;5056774;28;20440;-57
2022/11/19 06:36:34;;;;;;;7.60;5.30;;;-0.90;99.90;;;;;;5056479;28;20436;-52
2022/11/19 06:39:03;;;;;;;4.37;3.67;;;-1.00;99.90;;;;;;5056727;28;20413;-55
2022/11/19 06:41:32;;;;;;;7.57;3.53;;;-1.00;99.90;;;;;;5056474;28;20457;-59
2022/11/19 06:43:59;;;;;;;3.63;2.63;;;-1.00;99.90;;;;;;5056503;28;20455;-52
2022/11/19 06:46:25;;;;;;;5.63;4.23;;;-1.00;99.90;;;;;;5056586;28;20439;-55
2022/11/19 06:48:53;;;;;;;4.73;2.50;;;-1.00;99.90;;;;;;5056305;28;20487;-60
2022/11/19 06:51:20;;;;;;;7.57;4.30;;;-1.10;99.90;;;;;;5056262;28;20459;-53
2022/11/19 06:53:46;;;;;;;3.40;3.07;;;-1.00;99.90;;;;;;5056653;28;20459;-56
2022/11/19 06:56:15;;;;;;;4.17;3.10;;;-1.00;99.90;;;;;;5056692;28;20452;-52
2022/11/19 06:58:45;;;;;;;3.20;2.63;;;-1.00;99.90;;;;;;5056557;28;20436;-57
2022/11/19 07:01:15;;;;;;;5.83;2.50;;;-0.90;99.90;;;;;;5056650;28;20464;-58
2022/11/19 07:03:42;;;;;;;3.60;2.40;;;-1.00;99.90;;;;;;5056312;28;20452;-47
2022/11/19 07:06:09;;;;;;;5.73;3.57;;;-0.90;99.90;;;;;;5055977;28;20428;-59
2022/11/19 07:08:38;;;;;;;5.10;3.80;;;-0.90;99.90;;;;;;5049725;28;20498;-56
2022/11/19 07:13:59;;;;;;;6.57;4.87;;;-0.90;99.90;;;;;;5054244;28;20436;-59
2022/11/19 07:16:30;;;;;;;3.83;3.00;;;-0.90;99.90;;;;;;5055357;28;20574;-54
2022/11/19 07:18:58;;;;;;;4.70;2.20;;;-0.90;99.90;;;;;;5055663;28;20415;-52
2022/11/19 07:21:25;;;;;;;5.70;3.63;;;-0.90;99.90;;;;;;5055555;28;20527;-54
2022/11/19 07:23:52;;;;;;;6.20;2.97;;;-0.80;99.90;;;;;;5055933;28;20479;-57
2022/11/19 07:26:19;;;;;;;4.20;3.43;;;-0.90;99.90;;;;;;5055611;28;20456;-61
2022/11/19 07:28:47;;;;;;;4.47;2.47;;;-0.80;99.90;;;;;;5046047;28;20925;-61
2022/11/19 07:31:14;;;;;;;7.57;4.87;;;-0.80;99.90;;;;;;5054954;28;20451;-57
2022/11/19 07:33:41;;;;;;;4.80;2.70;;;-0.80;99.90;;;;;;5056047;28;20437;-57
2022/11/19 07:36:10;;;;;;;6.97;4.23;;;-0.80;99.90;;;;;;5055597;28;20440;-51
2022/11/19 07:38:39;;;;;;;6.67;3.37;;;-0.80;99.90;;;;;;5055671;28;20456;-56
2022/11/19 07:42:48;;;;;;;4.77;3.60;;;-0.80;99.90;;;;;;5055497;28;20462;-54
2022/11/19 07:43:56;;;;;;;5.33;3.70;;;-0.80;99.90;;;;;;5051029;28;20440;-54
2022/11/19 07:46:29;;;;;;;7.60;3.33;;;-0.80;99.90;;;;;;5059141;28;20495;-57
2022/11/19 07:48:59;;;;;;;5.60;2.43;;;-0.80;99.90;;;;;;5058854;28;20468;-58
2022/11/19 07:51:33;;;;;;;5.07;3.87;;;-0.80;99.90;;;;;;5059217;28;20451;-60
2022/11/19 07:54:02;;;;;;;5.10;4.00;;;-0.70;99.90;;;;;;5058792;28;20459;-59
2022/11/19 07:56:29;;;;;;;7.73;4.20;;;-0.60;99.90;;;;;;5059157;28;20552;-55
2022/11/19 07:59:04;;;;;;;7.33;3.77;;;-0.60;99.90;;;;;;5058680;28;20451;-51
2022/11/19 08:01:33;;;;;;;3.90;2.70;;;-0.50;99.90;;;;;;5059154;28;20501;-56
2022/11/19 08:04:04;;;;;;;6.13;2.60;;;-0.50;99.90;;;;;;5058899;28;20448;-55
2022/11/19 08:06:33;;;;;;;4.20;3.80;;;-0.30;99.90;;;;;;5058875;28;20467;-52
2022/11/19 08:09:04;;;;;;;3.83;2.53;;;-0.30;99.90;;;;;;5058661;28;20500;-58
2022/11/19 08:11:31;;;;;;;4.93;3.50;;;-0.20;99.90;;;;;;5058627;28;20461;-56
2022/11/19 08:14:01;;;;;;;3.03;1.93;;;-0.10;99.90;;;;;;5058380;28;20439;-56
2022/11/19 08:19:15;;;;;;;4.00;2.73;;;0.10;99.90;;;;;;5055817;28;20415;-54
2022/11/19 08:21:46;;;;;;;5.37;2.90;;;0.10;99.90;;;;;;5059018;28;20448;-55
2022/11/19 08:24:14;;;;;;;4.00;2.77;;;0.20;99.90;;;;;;5059012;28;20451;-54
2022/11/19 08:26:41;;;;;;;5.13;3.30;;;0.30;99.90;;;;;;5058776;28;20471;-56
2022/11/19 08:29:14;;;;;;;5.57;3.00;;;0.30;99.90;;;;;;5059252;28;20475;-49
2022/11/19 08:31:44;;;;;;;5.80;2.60;;;0.40;99.90;;;;;;5059629;28;20433;-53
2022/11/19 08:34:14;;;;;;;10.77;2.80;;;0.40;99.90;;;;;;5058895;28;20497;-64
2022/11/19 08:36:41;;;;;;;3.97;2.67;;;0.40;99.90;;;;;;5058980;28;20471;-53
2022/11/19 08:39:08;;;;;;;3.47;2.30;;;0.50;99.90;;;;;;5058432;28;20460;-58
2022/11/19 08:44:21;;;;;;;3.00;2.50;;;0.60;99.90;;;;;;5058787;28;20412;-61
2022/11/19 08:46:49;;;;;;;2.43;2.17;;;0.70;99.90;;;;;;5058126;28;20456;-58
2022/11/19 08:49:16;;;;;;;2.53;2.00;;;0.80;99.90;;;;;;5057748;28;20460;-62
2022/11/19 08:51:44;;;;;;;2.90;2.37;;;0.90;99.90;;;;;;5057701;28;20468;-50
2022/11/19 08:54:12;;;;;;;3.93;2.73;;;0.90;99.90;;;;;;5056226;28;20452;-59
2022/11/19 08:56:39;;;;;;;4.07;1.97;;;1.00;99.90;;;;;;5057363;28;20504;-56
2022/11/19 08:59:05;;;;;;;3.50;2.43;;;1.00;99.90;;;;;;5057499;28;20424;-57
2022/11/19 09:01:34;;;;;;;3.50;2.10;;;1.10;99.90;;;;;;5057368;28;20436;-56
2022/11/19 09:04:01;;;;;;;4.57;2.00;;;1.20;99.90;;;;;;5057200;28;20464;-56
2022/11/19 09:06:27;;;;;;;3.03;2.00;;;1.20;99.90;;;;;;5057197;28;20440;-59
2022/11/19 09:08:54;;;;;;;2.67;2.17;;;1.30;99.90;;;;;;5057119;28;20522;-57
2022/11/19 09:11:24;;;;;;;5.50;2.80;;;1.30;99.90;;;;;;5057395;28;20866;-59
2022/11/19 09:13:55;;;;;;;2.47;1.33;;;1.30;99.90;;;;;;5057270;28;20467;-55
2022/11/19 09:16:25;;;;;;;4.80;3.20;;;1.40;99.90;;;;;;5057218;28;20491;-62
2022/11/19 09:18:54;;;;;;;2.97;2.20;;;1.40;99.90;;;;;;5057409;28;20435;-53
2022/11/19 09:21:20;;;;;;;3.80;2.73;;;1.30;99.90;;;;;;5058097;28;20472;-52
2022/11/19 09:23:47;;;;;;;2.47;1.60;;;1.30;99.90;;;;;;5058053;28;20439;-58
2022/11/19 09:26:16;;;;;;;3.20;2.50;;;1.20;99.90;;;;;;5057834;28;20440;-59
2022/11/19 09:28:44;;;;;;;2.60;2.10;;;1.20;99.90;;;;;;5057317;28;20440;-61
2022/11/19 09:31:16;;;;;;;6.70;2.80;;;1.20;99.90;;;;;;5057819;28;20483;-60
2022/11/19 09:33:45;;;;;;;3.83;2.53;;;1.20;99.90;;;;;;5057366;28;20464;-62
2022/11/19 09:36:14;;;;;;;6.33;2.10;;;1.20;99.90;;;;;;5057906;28;20428;-60
2022/11/19 09:38:44;;;;;;;7.20;3.13;;;1.20;99.90;;;;;;5057623;28;20451;-63
2022/11/19 09:41:34;;;;;;;2.30;2.10;;;1.40;99.90;;;;;;5057685;28;20460;-55
2022/11/19 09:44:14;;;;;;;2.77;1.60;;;1.50;99.90;;;;;;5057249;28;20447;-57
2022/11/19 09:46:52;;;;;;;2.40;2.20;;;1.60;99.90;;;;;;5046532;28;20483;-52
2022/11/19 09:49:25;;;;;;;2.23;1.80;;;1.70;99.90;;;;;;5057452;28;20466;-52
2022/11/19 09:51:59;;;;;;;4.20;2.50;;;1.80;99.90;;;;;;5057338;28;20464;-59
2022/11/19 09:54:30;;;;;;;3.47;1.43;;;1.90;99.90;;;;;;5047626;28;20431;-56
2022/11/19 09:57:07;;;;;;;1.90;1.50;;;2.00;99.90;;;;;;5057616;28;20431;-62
2022/11/19 09:59:40;;;;;;;1.83;1.10;;;2.10;99.90;;;;;;5057833;28;20478;-58
2022/11/19 10:02:19;;;;;;;2.60;1.97;;;2.10;99.90;;;;;;5058023;28;20432;-51
2022/11/19 10:04:47;;;;;;;3.33;1.30;;;2.00;99.90;;;;;;5057831;28;20482;-54
2022/11/19 10:07:24;;;;;;;1.70;1.47;;;2.00;99.90;;;;;;5058308;28;20448;-50
2022/11/19 10:10:00;;;;;;;2.57;1.60;;;1.80;99.90;;;;;;5058170;28;20480;-53
2022/11/19 10:12:53;;;;;;;1.83;1.30;;;1.80;99.90;;;;;;5057952;28;20412;-57
2022/11/19 10:15:26;;;;;;;2.20;1.10;;;1.80;99.90;;;;;;5056494;28;20444;-50
2022/11/19 10:18:01;;;;;;;1.57;1.10;;;1.80;99.90;;;;;;5056386;28;20452;-57
2022/11/19 10:20:48;;;;;;;1.60;1.50;;;1.80;99.90;;;;;;5056423;28;20455;-56
2022/11/19 10:23:23;;;;;;;1.80;1.27;;;1.70;99.90;;;;;;5055590;28;20525;-57
2022/11/19 10:25:53;;;;;;;1.90;1.33;;;1.80;99.90;;;;;;5055887;28;20451;-54
2022/11/19 10:28:24;;;;;;;1.27;1.10;;;1.80;99.90;;;;;;5056074;28;20483;-53
2022/11/19 10:30:56;;;;;;;2.20;1.23;;;1.90;99.90;;;;;;5055417;28;20503;-65
2022/11/19 10:33:28;;;;;;;3.03;2.13;;;1.90;99.90;;;;;;5055742;28;20455;-57
2022/11/19 10:35:58;;;;;;;3.00;1.53;;;1.90;99.90;;;;;;5055712;28;20409;-58
2022/11/19 10:38:32;;;;;;;2.60;1.60;;;1.90;99.90;;;;;;5056161;28;20424;-57
2022/11/19 10:41:06;;;;;;;2.20;1.70;;;1.90;99.90;;;;;;5055864;28;20464;-56
2022/11/19 10:43:53;;;;;;;2.40;1.37;;;1.90;99.90;;;;;;5055960;28;20408;-52
2022/11/19 10:46:24;;;;;;;2.70;1.97;;;1.90;99.90;;;;;;5055626;28;20816;-60
2022/11/19 10:48:54;;;;;;;1.10;0.77;;;2.00;99.90;;;;;;5055933;28;20795;-52
2022/11/19 10:51:27;;;;;;;1.50;1.37;;;2.00;99.90;;;;;;5055647;28;20480;-59
2022/11/19 10:54:01;;;;;;;2.13;1.23;;;2.10;99.90;;;;;;5055429;28;20479;-55
2022/11/19 10:56:36;;;;;;;5.73;3.10;;;2.20;99.90;;;;;;5054392;28;20428;-59
2022/11/19 10:59:11;;;;;;;3.30;1.10;;;2.30;99.90;;;;;;5047358;28;20482;-56
2022/11/19 11:01:40;;;;;;;2.80;1.50;;;2.40;99.90;;;;;;5054340;28;20428;-57
2022/11/19 11:04:15;;;;;;;1.83;1.63;;;2.50;99.90;;;;;;5047208;28;20459;-65
2022/11/19 11:06:51;;;;;;;3.80;1.30;;;2.50;99.90;;;;;;5053000;28;20407;-52
2022/11/19 11:09:31;;;;;;;1.60;1.50;;;2.50;99.90;;;;;;5054982;28;20432;-59
2022/11/19 11:14:59;;;;;;;1.93;1.30;;;2.60;99.90;;;;;;5054287;28;20904;-56
2022/11/19 11:17:28;;;;;;;2.53;1.97;;;2.50;99.90;;;;;;5056264;28;20479;-57
2022/11/19 11:20:01;;;;;;;2.80;1.50;;;2.60;99.90;;;;;;5058799;28;20420;-55
2022/11/19 11:22:31;;;;;;;1.83;1.50;;;2.60;99.90;;;;;;5058634;28;20494;-55
2022/11/19 11:25:00;;;;;;;2.80;1.30;;;2.60;99.90;;;;;;5058458;28;20531;-51
2022/11/19 11:27:32;;;;;;;2.73;1.70;;;2.60;99.90;;;;;;5058458;28;20444;-52
2022/11/19 11:30:16;;;;;;;2.63;1.00;;;2.60;99.90;;;;;;5057775;28;20674;-60
2022/11/19 11:32:43;;;;;;;2.33;1.30;;;2.60;99.90;;;;;;5057828;28;20444;-56
2022/11/19 11:35:31;;;;;;;2.70;1.70;;;2.60;99.90;;;;;;5057679;28;20424;-55
2022/11/19 11:37:59;;;;;;;4.47;2.80;;;2.70;99.90;;;;;;5058369;28;20456;-53
2022/11/19 11:40:28;;;;;;;2.83;2.00;;;2.70;99.90;;;;;;5058773;28;20470;-54
2022/11/19 11:42:56;;;;;;;3.27;2.00;;;2.70;99.90;;;;;;5051435;28;20500;-60
2022/11/19 11:45:29;;;;;;;3.87;1.50;;;2.70;99.90;;;;;;5054582;28;20482;-58
2022/11/19 11:47:58;;;;;;;6.40;2.03;;;2.60;99.90;;;;;;5058680;28;20464;-54
2022/11/19 11:50:28;;;;;;;2.40;2.20;;;2.60;99.90;;;;;;5058398;28;20480;-57
2022/11/19 11:52:57;;;;;;;4.60;2.73;;;2.60;99.90;;;;;;5055272;28;20466;-64
2022/11/19 11:55:32;;;;;;;4.83;2.10;;;2.70;99.90;;;;;;5045116;28;20438;-52
2022/11/19 11:58:01;;;;;;;3.63;1.93;;;2.80;99.90;;;;;;5058581;28;20439;-56
2022/11/19 12:00:34;;;;;;;2.83;2.07;;;2.70;99.90;;;;;;5058339;28;20498;-55
2022/11/19 12:03:04;;;;;;;2.63;2.37;;;2.70;99.90;;;;;;5057456;28;20440;-59
2022/11/19 12:05:50;;;;;;;2.77;1.73;;;2.70;99.90;;;;;;5046022;28;20467;-57
2022/11/19 12:08:44;;;;;;;14.40;2.80;;;2.80;99.90;;;;;;5057282;28;20490;-60
2022/11/19 12:11:21;;;;;;;2.80;1.90;;;2.80;99.90;;;;;;5057853;28;20486;-59
2022/11/19 12:14:03;;;;;;;2.70;2.33;;;2.90;99.90;;;;;;5057658;28;20451;-57
2022/11/19 12:16:46;;;;;;;2.60;1.50;;;2.80;99.90;;;;;;5057205;28;20447;-57
2022/11/19 12:19:28;;;;;;;2.93;1.93;;;2.80;99.90;;;;;;5056060;28;20464;-56
2022/11/19 12:22:07;;;;;;;4.33;2.67;;;2.80;99.90;;;;;;5056495;28;20467;-58
2022/11/19 12:24:53;;;;;;;5.00;1.90;;;2.90;99.90;;;;;;5053025;28;20479;-63
2022/11/19 12:27:32;;;;;;;4.10;2.70;;;2.90;99.90;;;;;;5052154;28;20419;-56
2022/11/19 12:30:04;;;;;;;4.93;2.30;;;3.00;99.90;;;;;;5044011;28;20420;-60
2022/11/19 12:33:05;;;;;;;4.83;2.70;;;3.00;99.90;;;;;;5056584;28;20420;-59
2022/11/19 12:35:49;;;;;;;4.70;3.53;;;3.00;99.90;;;;;;5045253;28;20462;-63
2022/11/19 12:38:34;;;;;;;3.27;2.60;;;3.10;99.90;;;;;;5056660;28;20428;-54
2022/11/19 12:41:24;;;;;;;5.87;2.60;;;3.10;99.90;;;;;;5056439;28;20451;-61
2022/11/19 12:44:06;;;;;;;2.87;2.53;;;3.10;99.90;;;;;;5056700;28;20518;-60
2022/11/19 12:46:50;;;;;;;1.80;1.67;;;3.10;99.90;;;;;;5056779;28;20432;-58
2022/11/19 12:49:36;;;;;;;2.67;1.63;;;3.10;99.90;;;;;;5056466;28;20474;-60
2022/11/19 12:52:15;;;;;;;3.40;2.50;;;3.20;99.90;;;;;;5056207;28;20494;-59
2022/11/19 12:54:55;;;;;;;4.17;2.50;;;3.10;99.90;;;;;;5056056;28;20479;-57
2022/11/19 12:57:37;;;;;;;1.60;1.20;;;3.10;99.90;;;;;;5056145;28;20416;-54
2022/11/19 13:00:11;;;;;;;5.07;3.30;;;3.00;99.90;;;;;;5047241;28;20455;-56
2022/11/19 13:02:51;;;;;;;2.97;2.50;;;2.90;99.90;;;;;;5056456;28;20459;-55
2022/11/19 13:05:20;;;;;;;8.90;3.10;;;2.90;99.90;;;;;;5056380;28;20444;-53
2022/11/19 13:07:53;;;;;;;4.50;1.80;;;2.90;99.90;;;;;;5056534;28;20460;-55
2022/11/19 13:10:24;;;;;;;4.30;2.63;;;2.90;99.90;;;;;;5045536;28;20479;-60
2022/11/19 13:12:55;;;;;;;3.70;2.57;;;2.90;99.90;;;;;;5055814;28;20472;-62
2022/11/19 13:15:27;;;;;;;2.30;1.57;;;2.90;99.90;;;;;;5056297;28;20444;-58
2022/11/19 13:17:57;;;;;;;3.33;2.30;;;2.90;99.90;;;;;;5055693;28;20444;-56
2022/11/19 13:20:40;;;;;;;5.20;2.67;;;2.90;99.90;;;;;;5055051;28;20460;-60
2022/11/19 13:23:14;;;;;;;3.10;2.13;;;2.90;99.90;;;;;;5055912;28;20439;-56
2022/11/19 13:25:44;;;;;;;4.90;2.33;;;2.90;99.90;;;;;;5046551;28;20539;-60
2022/11/19 13:28:23;;;;;;;4.87;4.37;;;2.90;99.90;;;;;;5055625;28;20424;-59
2022/11/19 13:30:55;;;;;;;6.17;2.67;;;2.80;99.90;;;;;;5056188;28;20454;-55
2022/11/19 13:33:28;;;;;;;3.10;2.60;;;2.70;99.90;;;;;;5056271;28;20425;-62
2022/11/19 13:36:02;;;;;;;3.97;2.70;;;2.60;99.90;;;;;;5052285;28;20420;-58
2022/11/19 13:38:36;;;;;;;5.63;2.73;;;2.50;99.90;;;;;;5056130;28;20474;-62
2022/11/19 13:41:13;;;;;;;2.70;1.73;;;2.50;99.90;;;;;;5055604;28;20435;-57